Decoded Metar for KUSE ( in ) (IATA:) | Meteo·Mobile Aviation Weather
aviador You're here:

KUSE Decoded Metar

in
Report Time2019-02-16 00:55:00
UTC Time2019-02-16 01:05:51
Flight Rules vfr VFR
Wind310° at 11 kt
W.Decomp.*RWY 27: 8.4 kt HW 7.1 kt RCW
RWY 36: 7.1 kt HW 8.4 kt LCW
W.Rank310° ranks 13
Current wind is above 310° avg. (8.5)
Visibility9999 m
Phenomena:N/A
Clouds:N/A
CeilingNone
Temp-5°C
Dew Point-5°C (100% RH)
AAT-11.6°C
QNH1014 hPa
Raw Report
METAR KUSE 160055Z AUTO 31011KT 10SM CLR M05/M05 A2993 RMK AO2=

Extra information for KUSE:More info

Social comments